sensor_id;sensor_type;location;lat;lon;timestamp;temperature;humidity
26907;DHT22;14472;56.880;16.658;2022-09-23T00:01:52;14.50;1.00
26907;DHT22;14472;56.880;16.658;2022-09-23T00:04:18;14.50;1.00
26907;DHT22;14472;56.880;16.658;2022-09-23T00:06:44;14.50;1.00
26907;DHT22;14472;56.880;16.658;2022-09-23T00:09:10;14.50;1.00
26907;DHT22;14472;56.880;16.658;2022-09-23T00:11:36;14.50;1.00
26907;DHT22;14472;56.880;16.658;2022-09-23T00:14:03;14.50;1.00
26907;DHT22;14472;56.880;16.658;2022-09-23T00:16:34;14.50;1.00
26907;DHT22;14472;56.880;16.658;2022-09-23T00:19:01;14.50;1.00
26907;DHT22;14472;56.880;16.658;2022-09-23T00:21:27;14.50;1.00
26907;DHT22;14472;56.880;16.658;2022-09-23T00:23:53;14.50;1.00
26907;DHT22;14472;56.880;16.658;2022-09-23T00:26:21;14.50;1.00
26907;DHT22;14472;56.880;16.658;2022-09-23T00:28:48;14.50;1.00
26907;DHT22;14472;56.880;16.658;2022-09-23T00:31:22;14.50;1.00
26907;DHT22;14472;56.880;16.658;2022-09-23T00:33:59;14.50;1.00
26907;DHT22;14472;56.880;16.658;2022-09-23T00:36:26;14.40;1.00
26907;DHT22;14472;56.880;16.658;2022-09-23T00:38:52;14.40;1.00
26907;DHT22;14472;56.880;16.658;2022-09-23T00:41:18;14.40;1.00
26907;DHT22;14472;56.880;16.658;2022-09-23T00:43:56;14.40;1.00
26907;DHT22;14472;56.880;16.658;2022-09-23T00:46:31;14.40;1.00
26907;DHT22;14472;56.880;16.658;2022-09-23T00:49:10;14.30;1.00
26907;DHT22;14472;56.880;16.658;2022-09-23T00:51:39;14.40;1.00
26907;DHT22;14472;56.880;16.658;2022-09-23T00:54:08;14.30;1.00
26907;DHT22;14472;56.880;16.658;2022-09-23T00:56:35;14.30;1.00
26907;DHT22;14472;56.880;16.658;2022-09-23T00:59:03;14.30;1.00
26907;DHT22;14472;56.880;16.658;2022-09-23T01:01:30;14.40;1.00
26907;DHT22;14472;56.880;16.658;2022-09-23T01:03:56;14.40;1.00
26907;DHT22;14472;56.880;16.658;2022-09-23T01:06:22;14.40;1.00
26907;DHT22;14472;56.880;16.658;2022-09-23T01:08:48;14.40;1.00
26907;DHT22;14472;56.880;16.658;2022-09-23T01:22:48;14.40;1.00
26907;DHT22;14472;56.880;16.658;2022-09-23T01:27:39;14.40;1.00
26907;DHT22;14472;56.880;16.658;2022-09-23T01:38:41;14.40;1.00
26907;DHT22;14472;56.880;16.658;2022-09-23T01:44:30;14.40;1.00
26907;DHT22;14472;56.880;16.658;2022-09-23T01:47:20;14.40;1.00
26907;DHT22;14472;56.880;16.658;2022-09-23T01:49:56;14.40;1.00
26907;DHT22;14472;56.880;16.658;2022-09-23T01:52:42;14.40;1.00
26907;DHT22;14472;56.880;16.658;2022-09-23T01:55:19;14.30;1.00
26907;DHT22;14472;56.880;16.658;2022-09-23T01:57:56;14.30;1.00
26907;DHT22;14472;56.880;16.658;2022-09-23T02:00:23;14.30;1.00
26907;DHT22;14472;56.880;16.658;2022-09-23T02:03:17;14.30;1.00
26907;DHT22;14472;56.880;16.658;2022-09-23T02:05:52;14.30;1.00
26907;DHT22;14472;56.880;16.658;2022-09-23T02:08:42;14.30;1.00
26907;DHT22;14472;56.880;16.658;2022-09-23T02:11:11;14.30;1.00
26907;DHT22;14472;56.880;16.658;2022-09-23T02:21:51;14.40;1.00
26907;DHT22;14472;56.880;16.658;2022-09-23T02:24:25;14.40;1.00
26907;DHT22;14472;56.880;16.658;2022-09-23T02:26:58;14.40;1.00
26907;DHT22;14472;56.880;16.658;2022-09-23T02:38:39;14.30;1.00
26907;DHT22;14472;56.880;16.658;2022-09-23T02:44:02;14.20;1.00
26907;DHT22;14472;56.880;16.658;2022-09-23T02:46:30;14.30;1.00
26907;DHT22;14472;56.880;16.658;2022-09-23T02:49:03;14.30;1.00
26907;DHT22;14472;56.880;16.658;2022-09-23T02:51:30;14.20;1.00
26907;DHT22;14472;56.880;16.658;2022-09-23T02:54:00;14.20;1.00
26907;DHT22;14472;56.880;16.658;2022-09-23T02:56:27;14.20;1.00
26907;DHT22;14472;56.880;16.658;2022-09-23T02:58:54;14.20;1.00
26907;DHT22;14472;56.880;16.658;2022-09-23T03:06:59;14.20;1.00
26907;DHT22;14472;56.880;16.658;2022-09-23T03:10:13;14.10;1.00
26907;DHT22;14472;56.880;16.658;2022-09-23T03:12:30;14.10;1.00
26907;DHT22;14472;56.880;16.658;2022-09-23T03:20:34;14.10;1.00
26907;DHT22;14472;56.880;16.658;2022-09-23T03:23:07;14.10;1.00
26907;DHT22;14472;56.880;16.658;2022-09-23T03:25:38;14.10;1.00
26907;DHT22;14472;56.880;16.658;2022-09-23T03:28:05;14.10;1.00
26907;DHT22;14472;56.880;16.658;2022-09-23T03:30:34;14.10;1.00
26907;DHT22;14472;56.880;16.658;2022-09-23T03:33:03;14.10;1.00
26907;DHT22;14472;56.880;16.658;2022-09-23T03:35:32;14.10;1.00
26907;DHT22;14472;56.880;16.658;2022-09-23T03:38:19;14.10;1.00
26907;DHT22;14472;56.880;16.658;2022-09-23T03:40:49;14.10;1.00
26907;DHT22;14472;56.880;16.658;2022-09-23T03:43:17;14.10;1.00
26907;DHT22;14472;56.880;16.658;2022-09-23T03:45:45;14.10;1.00
26907;DHT22;14472;56.880;16.658;2022-09-23T03:48:11;14.10;1.00
26907;DHT22;14472;56.880;16.658;2022-09-23T03:50:39;14.10;1.00
26907;DHT22;14472;56.880;16.658;2022-09-23T03:53:05;14.10;1.00
26907;DHT22;14472;56.880;16.658;2022-09-23T03:55:32;14.10;1.00
26907;DHT22;14472;56.880;16.658;2022-09-23T03:57:57;14.10;1.00
26907;DHT22;14472;56.880;16.658;2022-09-23T04:00:25;14.10;1.00
26907;DHT22;14472;56.880;16.658;2022-09-23T04:02:51;14.00;1.00
26907;DHT22;14472;56.880;16.658;2022-09-23T04:05:17;14.00;1.00
26907;DHT22;14472;56.880;16.658;2022-09-23T04:07:43;14.00;1.00
26907;DHT22;14472;56.880;16.658;2022-09-23T04:10:09;14.00;1.00
26907;DHT22;14472;56.880;16.658;2022-09-23T04:12:36;14.10;1.00
26907;DHT22;14472;56.880;16.658;2022-09-23T04:15:02;14.10;1.00
26907;DHT22;14472;56.880;16.658;2022-09-23T04:17:28;14.10;1.00
26907;DHT22;14472;56.880;16.658;2022-09-23T04:19:55;14.10;1.00
26907;DHT22;14472;56.880;16.658;2022-09-23T04:22:21;14.00;1.00
26907;DHT22;14472;56.880;16.658;2022-09-23T04:24:47;14.00;1.00
26907;DHT22;14472;56.880;16.658;2022-09-23T04:27:13;14.00;1.00
26907;DHT22;14472;56.880;16.658;2022-09-23T04:29:39;14.00;1.00
26907;DHT22;14472;56.880;16.658;2022-09-23T04:32:05;14.00;1.00
26907;DHT22;14472;56.880;16.658;2022-09-23T04:34:30;14.00;1.00
26907;DHT22;14472;56.880;16.658;2022-09-23T04:36:56;14.00;1.00
26907;DHT22;14472;56.880;16.658;2022-09-23T04:39:21;14.00;1.00
26907;DHT22;14472;56.880;16.658;2022-09-23T04:41:47;14.00;1.00
26907;DHT22;14472;56.880;16.658;2022-09-23T04:44:13;14.00;1.00
26907;DHT22;14472;56.880;16.658;2022-09-23T04:46:40;14.00;1.00
26907;DHT22;14472;56.880;16.658;2022-09-23T04:49:07;14.00;1.00
26907;DHT22;14472;56.880;16.658;2022-09-23T04:51:32;13.90;1.00
26907;DHT22;14472;56.880;16.658;2022-09-23T04:53:58;13.90;1.00
26907;DHT22;14472;56.880;16.658;2022-09-23T04:56:29;13.90;1.00
26907;DHT22;14472;56.880;16.658;2022-09-23T04:58:57;13.90;1.00
26907;DHT22;14472;56.880;16.658;2022-09-23T05:01:25;13.90;1.00
26907;DHT22;14472;56.880;16.658;2022-09-23T05:03:54;13.90;1.00
26907;DHT22;14472;56.880;16.658;2022-09-23T05:06:20;13.90;1.00
26907;DHT22;14472;56.880;16.658;2022-09-23T05:08:52;13.90;1.00
26907;DHT22;14472;56.880;16.658;2022-09-23T05:11:18;13.90;1.00
26907;DHT22;14472;56.880;16.658;2022-09-23T05:13:46;13.80;1.00
26907;DHT22;14472;56.880;16.658;2022-09-23T05:16:12;13.80;1.00
26907;DHT22;14472;56.880;16.658;2022-09-23T05:18:40;13.80;1.00
26907;DHT22;14472;56.880;16.658;2022-09-23T05:21:12;13.80;1.00
26907;DHT22;14472;56.880;16.658;2022-09-23T05:23:39;13.90;1.00
26907;DHT22;14472;56.880;16.658;2022-09-23T05:26:08;13.90;1.00
26907;DHT22;14472;56.880;16.658;2022-09-23T05:28:34;13.90;1.00
26907;DHT22;14472;56.880;16.658;2022-09-23T05:33:34;13.80;1.00
26907;DHT22;14472;56.880;16.658;2022-09-23T05:36:01;13.90;1.00
26907;DHT22;14472;56.880;16.658;2022-09-23T05:38:28;13.90;1.00
26907;DHT22;14472;56.880;16.658;2022-09-23T05:40:58;13.80;1.00
26907;DHT22;14472;56.880;16.658;2022-09-23T05:43:24;13.90;1.00
26907;DHT22;14472;56.880;16.658;2022-09-23T05:45:51;13.90;1.00
26907;DHT22;14472;56.880;16.658;2022-09-23T05:48:17;14.00;1.00
26907;DHT22;14472;56.880;16.658;2022-09-23T05:50:52;14.00;1.00
26907;DHT22;14472;56.880;16.658;2022-09-23T05:53:18;14.00;1.00
26907;DHT22;14472;56.880;16.658;2022-09-23T05:55:44;14.00;1.00
26907;DHT22;14472;56.880;16.658;2022-09-23T05:58:11;14.10;1.00
26907;DHT22;14472;56.880;16.658;2022-09-23T06:00:41;14.10;1.00
26907;DHT22;14472;56.880;16.658;2022-09-23T06:03:18;14.10;1.00
26907;DHT22;14472;56.880;16.658;2022-09-23T06:05:44;14.10;1.00
26907;DHT22;14472;56.880;16.658;2022-09-23T06:08:11;14.10;1.00
26907;DHT22;14472;56.880;16.658;2022-09-23T06:10:38;14.10;1.00
26907;DHT22;14472;56.880;16.658;2022-09-23T06:13:04;14.10;1.00
26907;DHT22;14472;56.880;16.658;2022-09-23T06:15:30;14.10;1.00
26907;DHT22;14472;56.880;16.658;2022-09-23T06:17:57;14.00;1.00
26907;DHT22;14472;56.880;16.658;2022-09-23T06:20:23;14.00;1.00
26907;DHT22;14472;56.880;16.658;2022-09-23T06:22:49;14.10;1.00
26907;DHT22;14472;56.880;16.658;2022-09-23T06:25:14;14.10;1.00
26907;DHT22;14472;56.880;16.658;2022-09-23T06:27:40;14.20;1.00
26907;DHT22;14472;56.880;16.658;2022-09-23T06:30:06;14.20;1.00
26907;DHT22;14472;56.880;16.658;2022-09-23T06:32:32;14.20;1.00
26907;DHT22;14472;56.880;16.658;2022-09-23T06:34:58;14.20;1.00
26907;DHT22;14472;56.880;16.658;2022-09-23T06:37:24;14.30;1.00
26907;DHT22;14472;56.880;16.658;2022-09-23T06:39:49;14.30;1.00
26907;DHT22;14472;56.880;16.658;2022-09-23T06:42:16;14.30;1.00
26907;DHT22;14472;56.880;16.658;2022-09-23T06:44:42;14.40;1.00
26907;DHT22;14472;56.880;16.658;2022-09-23T06:47:08;14.40;1.00
26907;DHT22;14472;56.880;16.658;2022-09-23T06:49:33;14.40;1.00
26907;DHT22;14472;56.880;16.658;2022-09-23T06:52:00;14.40;1.00
26907;DHT22;14472;56.880;16.658;2022-09-23T06:54:26;14.40;1.00
26907;DHT22;14472;56.880;16.658;2022-09-23T06:56:53;14.50;1.00
26907;DHT22;14472;56.880;16.658;2022-09-23T06:59:19;14.50;1.00
26907;DHT22;14472;56.880;16.658;2022-09-23T07:01:45;14.50;1.00
26907;DHT22;14472;56.880;16.658;2022-09-23T07:04:13;14.50;1.00
26907;DHT22;14472;56.880;16.658;2022-09-23T07:06:39;14.60;1.00
26907;DHT22;14472;56.880;16.658;2022-09-23T07:09:06;14.60;1.00
26907;DHT22;14472;56.880;16.658;2022-09-23T07:11:32;14.60;1.00
26907;DHT22;14472;56.880;16.658;2022-09-23T07:13:58;14.60;1.00
26907;DHT22;14472;56.880;16.658;2022-09-23T07:16:24;14.70;1.00
26907;DHT22;14472;56.880;16.658;2022-09-23T07:18:50;14.70;1.00
26907;DHT22;14472;56.880;16.658;2022-09-23T07:21:18;14.70;1.00
26907;DHT22;14472;56.880;16.658;2022-09-23T07:23:45;14.80;1.00
26907;DHT22;14472;56.880;16.658;2022-09-23T07:26:12;14.80;1.00
26907;DHT22;14472;56.880;16.658;2022-09-23T07:28:39;14.90;1.00
26907;DHT22;14472;56.880;16.658;2022-09-23T07:31:13;15.00;1.00
26907;DHT22;14472;56.880;16.658;2022-09-23T07:33:40;15.10;1.00
26907;DHT22;14472;56.880;16.658;2022-09-23T07:36:13;15.10;1.00
26907;DHT22;14472;56.880;16.658;2022-09-23T07:38:41;15.20;1.00
26907;DHT22;14472;56.880;16.658;2022-09-23T07:41:08;15.30;1.00
26907;DHT22;14472;56.880;16.658;2022-09-23T07:43:35;15.30;1.00
26907;DHT22;14472;56.880;16.658;2022-09-23T07:46:04;15.40;1.00
26907;DHT22;14472;56.880;16.658;2022-09-23T07:48:33;15.40;1.00
26907;DHT22;14472;56.880;16.658;2022-09-23T07:50:59;15.50;1.00
26907;DHT22;14472;56.880;16.658;2022-09-23T07:53:26;15.50;1.00
26907;DHT22;14472;56.880;16.658;2022-09-23T07:55:53;15.60;1.00
26907;DHT22;14472;56.880;16.658;2022-09-23T07:58:19;15.60;1.00
26907;DHT22;14472;56.880;16.658;2022-09-23T08:00:45;15.60;1.00
26907;DHT22;14472;56.880;16.658;2022-09-23T08:03:11;15.70;1.00
26907;DHT22;14472;56.880;16.658;2022-09-23T08:05:36;15.80;1.00
26907;DHT22;14472;56.880;16.658;2022-09-23T08:08:03;15.80;1.00
26907;DHT22;14472;56.880;16.658;2022-09-23T08:10:32;15.80;1.00
26907;DHT22;14472;56.880;16.658;2022-09-23T08:12:58;15.90;1.00
26907;DHT22;14472;56.880;16.658;2022-09-23T08:15:26;15.90;1.00
26907;DHT22;14472;56.880;16.658;2022-09-23T08:17:52;16.00;1.00
26907;DHT22;14472;56.880;16.658;2022-09-23T08:20:18;16.10;1.00
26907;DHT22;14472;56.880;16.658;2022-09-23T08:23:02;16.10;1.00
26907;DHT22;14472;56.880;16.658;2022-09-23T08:25:28;16.20;1.00
26907;DHT22;14472;56.880;16.658;2022-09-23T08:27:54;16.40;1.00
26907;DHT22;14472;56.880;16.658;2022-09-23T08:30:19;16.40;1.00
26907;DHT22;14472;56.880;16.658;2022-09-23T08:32:49;16.50;1.00
26907;DHT22;14472;56.880;16.658;2022-09-23T08:35:15;16.60;1.00
26907;DHT22;14472;56.880;16.658;2022-09-23T08:37:41;16.70;1.00
26907;DHT22;14472;56.880;16.658;2022-09-23T08:40:07;16.80;1.00
26907;DHT22;14472;56.880;16.658;2022-09-23T08:42:35;16.90;1.00
26907;DHT22;14472;56.880;16.658;2022-09-23T08:45:04;17.00;1.00
26907;DHT22;14472;56.880;16.658;2022-09-23T08:48:07;17.00;1.00
26907;DHT22;14472;56.880;16.658;2022-09-23T08:50:45;17.00;1.00
26907;DHT22;14472;56.880;16.658;2022-09-23T08:53:26;17.10;1.00
26907;DHT22;14472;56.880;16.658;2022-09-23T08:55:55;17.20;1.00
26907;DHT22;14472;56.880;16.658;2022-09-23T09:01:38;17.40;1.00
26907;DHT22;14472;56.880;16.658;2022-09-23T09:06:44;17.40;1.00
26907;DHT22;14472;56.880;16.658;2022-09-23T09:09:30;17.40;1.00
26907;DHT22;14472;56.880;16.658;2022-09-23T09:14:56;17.50;1.00
26907;DHT22;14472;56.880;16.658;2022-09-23T09:18:22;17.60;1.00
26907;DHT22;14472;56.880;16.658;2022-09-23T09:23:29;18.00;1.00
26907;DHT22;14472;56.880;16.658;2022-09-23T09:25:59;18.10;1.00
26907;DHT22;14472;56.880;16.658;2022-09-23T09:28:32;18.20;1.00
26907;DHT22;14472;56.880;16.658;2022-09-23T09:33:54;18.20;1.00
26907;DHT22;14472;56.880;16.658;2022-09-23T09:36:37;18.20;1.00
26907;DHT22;14472;56.880;16.658;2022-09-23T09:39:04;18.20;1.00
26907;DHT22;14472;56.880;16.658;2022-09-23T09:41:32;18.10;1.00
26907;DHT22;14472;56.880;16.658;2022-09-23T09:44:00;18.20;1.00
26907;DHT22;14472;56.880;16.658;2022-09-23T09:46:41;18.20;1.00
26907;DHT22;14472;56.880;16.658;2022-09-23T09:49:21;18.20;1.00
26907;DHT22;14472;56.880;16.658;2022-09-23T09:52:21;18.20;1.00
26907;DHT22;14472;56.880;16.658;2022-09-23T09:54:49;18.20;1.00
26907;DHT22;14472;56.880;16.658;2022-09-23T09:57:32;18.20;1.00
26907;DHT22;14472;56.880;16.658;2022-09-23T10:05:47;18.40;1.00
26907;DHT22;14472;56.880;16.658;2022-09-23T10:08:29;18.40;1.00
26907;DHT22;14472;56.880;16.658;2022-09-23T10:11:13;18.50;1.00
26907;DHT22;14472;56.880;16.658;2022-09-23T10:14:11;18.60;1.00
26907;DHT22;14472;56.880;16.658;2022-09-23T10:16:38;18.70;1.00
26907;DHT22;14472;56.880;16.658;2022-09-23T10:21:38;18.70;1.00
26907;DHT22;14472;56.880;16.658;2022-09-23T10:24:07;18.70;1.00
26907;DHT22;14472;56.880;16.658;2022-09-23T10:26:49;18.70;1.00
26907;DHT22;14472;56.880;16.658;2022-09-23T10:32:32;18.70;1.00
26907;DHT22;14472;56.880;16.658;2022-09-23T10:37:48;18.60;1.00
26907;DHT22;14472;56.880;16.658;2022-09-23T10:40:47;18.60;1.00
26907;DHT22;14472;56.880;16.658;2022-09-23T10:43:35;18.60;1.00
26907;DHT22;14472;56.880;16.658;2022-09-23T10:46:46;18.60;1.00
26907;DHT22;14472;56.880;16.658;2022-09-23T11:25:18;19.40;1.00
26907;DHT22;14472;56.880;16.658;2022-09-23T11:28:18;19.30;1.00
26907;DHT22;14472;56.880;16.658;2022-09-23T11:36:20;19.40;1.00
26907;DHT22;14472;56.880;16.658;2022-09-23T11:38:49;19.40;1.00
26907;DHT22;14472;56.880;16.658;2022-09-23T11:43:43;19.50;1.00
26907;DHT22;14472;56.880;16.658;2022-09-23T11:46:29;19.50;1.00
26907;DHT22;14472;56.880;16.658;2022-09-23T11:54:31;19.50;1.00
26907;DHT22;14472;56.880;16.658;2022-09-23T11:57:05;19.50;1.00
26907;DHT22;14472;56.880;16.658;2022-09-23T11:59:51;19.50;1.00
26907;DHT22;14472;56.880;16.658;2022-09-23T12:02:24;19.50;1.00
26907;DHT22;14472;56.880;16.658;2022-09-23T12:05:07;19.40;1.00
26907;DHT22;14472;56.880;16.658;2022-09-23T12:08:09;19.40;1.00
26907;DHT22;14472;56.880;16.658;2022-09-23T12:13:33;19.20;1.00
26907;DHT22;14472;56.880;16.658;2022-09-23T12:18:49;19.10;1.00
26907;DHT22;14472;56.880;16.658;2022-09-23T12:24:21;19.10;1.00
26907;DHT22;14472;56.880;16.658;2022-09-23T12:26:57;18.90;1.00
26907;DHT22;14472;56.880;16.658;2022-09-23T12:29:28;18.90;1.00
26907;DHT22;14472;56.880;16.658;2022-09-23T12:31:57;18.80;1.00
26907;DHT22;14472;56.880;16.658;2022-09-23T12:34:42;18.80;1.00
26907;DHT22;14472;56.880;16.658;2022-09-23T12:39:52;18.70;1.00
26907;DHT22;14472;56.880;16.658;2022-09-23T12:42:21;18.60;1.00
26907;DHT22;14472;56.880;16.658;2022-09-23T12:44:48;18.60;1.00
26907;DHT22;14472;56.880;16.658;2022-09-23T12:49:40;18.60;1.00
26907;DHT22;14472;56.880;16.658;2022-09-23T12:54:36;18.50;1.00
26907;DHT22;14472;56.880;16.658;2022-09-23T12:57:05;18.50;1.00
26907;DHT22;14472;56.880;16.658;2022-09-23T13:05:23;18.40;1.00
26907;DHT22;14472;56.880;16.658;2022-09-23T13:08:15;18.30;1.00
26907;DHT22;14472;56.880;16.658;2022-09-23T13:13:39;18.30;1.00
26907;DHT22;14472;56.880;16.658;2022-09-23T13:18:59;18.20;1.00
26907;DHT22;14472;56.880;16.658;2022-09-23T13:27:26;18.10;1.00
26907;DHT22;14472;56.880;16.658;2022-09-23T13:32:39;18.00;1.00
26907;DHT22;14472;56.880;16.658;2022-09-23T13:35:34;18.00;1.00
26907;DHT22;14472;56.880;16.658;2022-09-23T13:38:19;18.00;1.00
26907;DHT22;14472;56.880;16.658;2022-09-23T13:40:45;18.00;1.00
26907;DHT22;14472;56.880;16.658;2022-09-23T13:43:20;17.90;1.00
26907;DHT22;14472;56.880;16.658;2022-09-23T13:45:47;18.00;1.00
26907;DHT22;14472;56.880;16.658;2022-09-23T13:48:14;17.90;1.00
26907;DHT22;14472;56.880;16.658;2022-09-23T13:50:48;17.90;1.00
26907;DHT22;14472;56.880;16.658;2022-09-23T13:53:26;17.90;1.00
26907;DHT22;14472;56.880;16.658;2022-09-23T13:58:30;17.80;1.00
26907;DHT22;14472;56.880;16.658;2022-09-23T14:00:56;17.80;1.00
26907;DHT22;14472;56.880;16.658;2022-09-23T14:03:35;17.80;1.00
26907;DHT22;14472;56.880;16.658;2022-09-23T14:06:08;17.80;1.00
26907;DHT22;14472;56.880;16.658;2022-09-23T14:08:34;17.80;1.00
26907;DHT22;14472;56.880;16.658;2022-09-23T14:11:02;17.80;1.00
26907;DHT22;14472;56.880;16.658;2022-09-23T14:13:41;17.70;1.00
26907;DHT22;14472;56.880;16.658;2022-09-23T14:16:09;17.70;1.00
26907;DHT22;14472;56.880;16.658;2022-09-23T14:18:44;17.70;1.00
26907;DHT22;14472;56.880;16.658;2022-09-23T14:21:35;17.70;1.00
26907;DHT22;14472;56.880;16.658;2022-09-23T14:24:22;17.70;1.00
26907;DHT22;14472;56.880;16.658;2022-09-23T14:26:58;17.70;1.00
26907;DHT22;14472;56.880;16.658;2022-09-23T14:29:45;17.70;1.00
26907;DHT22;14472;56.880;16.658;2022-09-23T14:32:16;17.60;1.00
26907;DHT22;14472;56.880;16.658;2022-09-23T14:34:49;17.60;1.00
26907;DHT22;14472;56.880;16.658;2022-09-23T14:37:26;17.60;1.00
26907;DHT22;14472;56.880;16.658;2022-09-23T14:40:16;17.60;1.00
26907;DHT22;14472;56.880;16.658;2022-09-23T14:42:56;17.60;1.00
26907;DHT22;14472;56.880;16.658;2022-09-23T14:45:25;17.60;1.00
26907;DHT22;14472;56.880;16.658;2022-09-23T14:48:00;17.60;1.00
26907;DHT22;14472;56.880;16.658;2022-09-23T14:50:30;17.60;1.00
26907;DHT22;14472;56.880;16.658;2022-09-23T14:55:44;17.70;1.00
26907;DHT22;14472;56.880;16.658;2022-09-23T14:58:16;17.70;1.00
26907;DHT22;14472;56.880;16.658;2022-09-23T15:00:56;17.70;1.00
26907;DHT22;14472;56.880;16.658;2022-09-23T15:03:24;17.70;1.00
26907;DHT22;14472;56.880;16.658;2022-09-23T15:05:57;17.70;1.00
26907;DHT22;14472;56.880;16.658;2022-09-23T15:08:26;17.70;1.00
26907;DHT22;14472;56.880;16.658;2022-09-23T15:10:52;17.80;1.00
26907;DHT22;14472;56.880;16.658;2022-09-23T15:13:21;17.80;1.00
26907;DHT22;14472;56.880;16.658;2022-09-23T15:15:51;17.70;1.00
26907;DHT22;14472;56.880;16.658;2022-09-23T15:18:26;17.80;1.00
26907;DHT22;14472;56.880;16.658;2022-09-23T15:21:20;17.80;1.00
26907;DHT22;14472;56.880;16.658;2022-09-23T15:23:52;17.80;1.00
26907;DHT22;14472;56.880;16.658;2022-09-23T15:26:24;17.80;1.00
26907;DHT22;14472;56.880;16.658;2022-09-23T15:28:51;17.90;1.00
26907;DHT22;14472;56.880;16.658;2022-09-23T15:31:20;17.80;1.00
26907;DHT22;14472;56.880;16.658;2022-09-23T15:33:47;17.80;1.00
26907;DHT22;14472;56.880;16.658;2022-09-23T15:36:21;17.80;1.00
26907;DHT22;14472;56.880;16.658;2022-09-23T15:38:48;17.80;1.00
26907;DHT22;14472;56.880;16.658;2022-09-23T15:41:14;17.80;1.00
26907;DHT22;14472;56.880;16.658;2022-09-23T15:43:40;17.80;1.00
26907;DHT22;14472;56.880;16.658;2022-09-23T15:46:21;17.80;1.00
26907;DHT22;14472;56.880;16.658;2022-09-23T15:48:59;17.80;1.00
26907;DHT22;14472;56.880;16.658;2022-09-23T15:51:26;17.80;1.00
26907;DHT22;14472;56.880;16.658;2022-09-23T15:53:52;17.80;1.00
26907;DHT22;14472;56.880;16.658;2022-09-23T15:56:20;17.80;1.00
26907;DHT22;14472;56.880;16.658;2022-09-23T15:58:46;17.80;1.00
26907;DHT22;14472;56.880;16.658;2022-09-23T16:01:32;17.80;1.00
26907;DHT22;14472;56.880;16.658;2022-09-23T16:04:00;17.70;1.00
26907;DHT22;14472;56.880;16.658;2022-09-23T16:06:26;17.70;1.00
26907;DHT22;14472;56.880;16.658;2022-09-23T16:08:55;17.70;1.00
26907;DHT22;14472;56.880;16.658;2022-09-23T16:11:26;17.60;1.00
26907;DHT22;14472;56.880;16.658;2022-09-23T16:13:56;17.60;1.00
26907;DHT22;14472;56.880;16.658;2022-09-23T16:16:22;17.60;1.00
26907;DHT22;14472;56.880;16.658;2022-09-23T16:18:48;17.60;1.00
26907;DHT22;14472;56.880;16.658;2022-09-23T16:21:17;17.60;1.00
26907;DHT22;14472;56.880;16.658;2022-09-23T16:23:45;17.50;1.00
26907;DHT22;14472;56.880;16.658;2022-09-23T16:26:23;17.50;1.00
26907;DHT22;14472;56.880;16.658;2022-09-23T16:28:52;17.50;1.00
26907;DHT22;14472;56.880;16.658;2022-09-23T16:31:18;17.50;1.00
26907;DHT22;14472;56.880;16.658;2022-09-23T16:33:45;17.40;1.00
26907;DHT22;14472;56.880;16.658;2022-09-23T16:38:46;17.40;1.00
26907;DHT22;14472;56.880;16.658;2022-09-23T16:41:13;17.30;1.00
26907;DHT22;14472;56.880;16.658;2022-09-23T16:43:38;17.30;1.00
26907;DHT22;14472;56.880;16.658;2022-09-23T16:46:10;17.30;1.00
26907;DHT22;14472;56.880;16.658;2022-09-23T16:48:37;17.30;1.00
26907;DHT22;14472;56.880;16.658;2022-09-23T16:51:06;17.20;1.00
26907;DHT22;14472;56.880;16.658;2022-09-23T16:53:32;17.20;1.00
26907;DHT22;14472;56.880;16.658;2022-09-23T16:56:04;17.20;1.00
26907;DHT22;14472;56.880;16.658;2022-09-23T16:58:32;17.20;1.00
26907;DHT22;14472;56.880;16.658;2022-09-23T17:00:57;17.10;1.00
26907;DHT22;14472;56.880;16.658;2022-09-23T17:03:42;17.10;1.00
26907;DHT22;14472;56.880;16.658;2022-09-23T17:06:11;17.10;1.00
26907;DHT22;14472;56.880;16.658;2022-09-23T17:08:38;17.00;1.00
26907;DHT22;14472;56.880;16.658;2022-09-23T17:11:06;17.00;1.00
26907;DHT22;14472;56.880;16.658;2022-09-23T17:13:32;17.00;1.00
26907;DHT22;14472;56.880;16.658;2022-09-23T17:15:58;16.90;1.00
26907;DHT22;14472;56.880;16.658;2022-09-23T17:18:24;16.90;1.00
26907;DHT22;14472;56.880;16.658;2022-09-23T17:21:01;16.90;1.00
26907;DHT22;14472;56.880;16.658;2022-09-23T17:23:28;16.90;1.00
26907;DHT22;14472;56.880;16.658;2022-09-23T17:25:56;16.90;1.00
26907;DHT22;14472;56.880;16.658;2022-09-23T17:28:22;16.80;1.00
26907;DHT22;14472;56.880;16.658;2022-09-23T17:30:58;16.80;1.00
26907;DHT22;14472;56.880;16.658;2022-09-23T17:33:25;16.80;1.00
26907;DHT22;14472;56.880;16.658;2022-09-23T17:35:51;16.70;1.00
26907;DHT22;14472;56.880;16.658;2022-09-23T17:38:17;16.70;1.00
26907;DHT22;14472;56.880;16.658;2022-09-23T17:40:54;16.70;1.00
26907;DHT22;14472;56.880;16.658;2022-09-23T17:43:20;16.70;1.00
26907;DHT22;14472;56.880;16.658;2022-09-23T17:45:54;16.60;1.00
26907;DHT22;14472;56.880;16.658;2022-09-23T17:48:21;16.60;1.00
26907;DHT22;14472;56.880;16.658;2022-09-23T17:51:00;16.60;1.00
26907;DHT22;14472;56.880;16.658;2022-09-23T17:53:29;16.60;1.00
26907;DHT22;14472;56.880;16.658;2022-09-23T17:56:00;16.50;1.00
26907;DHT22;14472;56.880;16.658;2022-09-23T17:58:27;16.50;1.00
26907;DHT22;14472;56.880;16.658;2022-09-23T18:00:54;16.50;1.00
26907;DHT22;14472;56.880;16.658;2022-09-23T18:03:20;16.50;1.00
26907;DHT22;14472;56.880;16.658;2022-09-23T18:05:45;16.50;1.00
26907;DHT22;14472;56.880;16.658;2022-09-23T18:08:11;16.40;1.00
26907;DHT22;14472;56.880;16.658;2022-09-23T18:10:37;16.40;1.00
26907;DHT22;14472;56.880;16.658;2022-09-23T18:13:03;16.40;1.00
26907;DHT22;14472;56.880;16.658;2022-09-23T18:15:28;16.40;1.00
26907;DHT22;14472;56.880;16.658;2022-09-23T18:17:54;16.40;1.00
26907;DHT22;14472;56.880;16.658;2022-09-23T18:20:20;16.30;1.00
26907;DHT22;14472;56.880;16.658;2022-09-23T18:22:45;16.30;1.00
26907;DHT22;14472;56.880;16.658;2022-09-23T18:25:11;16.30;1.00
26907;DHT22;14472;56.880;16.658;2022-09-23T18:27:37;16.30;1.00
26907;DHT22;14472;56.880;16.658;2022-09-23T18:30:03;16.20;1.00
26907;DHT22;14472;56.880;16.658;2022-09-23T18:32:28;16.20;1.00
26907;DHT22;14472;56.880;16.658;2022-09-23T18:34:54;16.20;1.00
26907;DHT22;14472;56.880;16.658;2022-09-23T18:37:20;16.20;1.00
26907;DHT22;14472;56.880;16.658;2022-09-23T18:39:45;16.20;1.00
26907;DHT22;14472;56.880;16.658;2022-09-23T18:42:12;16.20;1.00
26907;DHT22;14472;56.880;16.658;2022-09-23T18:44:39;16.20;1.00
26907;DHT22;14472;56.880;16.658;2022-09-23T18:47:05;16.20;1.00
26907;DHT22;14472;56.880;16.658;2022-09-23T18:49:30;16.10;1.00
26907;DHT22;14472;56.880;16.658;2022-09-23T18:52:15;16.10;1.00
26907;DHT22;14472;56.880;16.658;2022-09-23T18:54:40;16.10;1.00